• Join FlightAware (Why Join?)
  • Login
  • US Flag 
01:07PM EDT


 

Airport Tracker/Info


-or-


 

Live Flight TrackerFlight Track Log ✈ PDT4314 ✈ 28-Aug-2013 ✈ KPHL - KBGM

Flight Track Log - Related Links

Times and Time Zones

All times are in EDT time to prevent confusion due to time zone crossing. See the PDT4314 flight status page for this flight to view local times or setup timezone preferences in your user account.

Time Position Orientation Groundspeed Altitude Reporting Facility
EDT Latitude Longitude Course Direction KTS MPH feet Rate Location/Type
05:37PM 39.8833 -75.2000 348° North 116 133 500  Level Philadelphia TRACON
05:39PM 39.9167 -75.1667 37° Northeast 130 150 1,700 960 Climbing Philadelphia TRACON
05:40PM 40.0698 -75.2833 North  Level FlightAware Approximate
05:40PM 39.9500 -75.1500 21° North 182 209 2,600  Level Philadelphia TRACON
05:40PM 40.0000 -75.1500 360° North 204 235 3,000 600 Climbing Philadelphia TRACON
05:41PM 40.1392 -75.2945 348° North  Level FlightAware Approximate
05:42PM 40.2079 -75.3141 348° North  Level FlightAware Approximate
05:42PM 40.0667 -75.1833 339° North 217 250 3,800  Level Philadelphia TRACON
05:42PM 40.1167 -75.2000 346° North 227 261 4,000 180 Climbing Philadelphia TRACON
05:43PM 40.2766 -75.3337 348° North  Level FlightAware Approximate
05:44PM 40.1859 -75.2379 337° Northwest  Level FlightAware Approximate
05:51PM 40.6589 -75.4355 349° North  Level FlightAware Approximate
05:52PM 40.7282 -75.4500 North  Level FlightAware Approximate
05:53PM 40.7985 -75.4500 North  Level FlightAware Approximate
05:54PM 40.8688 -75.4500 North  Level FlightAware Approximate
05:55PM 40.9392 -75.4500 North  Level FlightAware Approximate
05:56PM 41.0095 -75.4500 North  Level FlightAware Approximate
05:57PM 41.0798 -75.4536 357° North  Level FlightAware Approximate
05:58PM 41.1500 -75.4590 357° North  Level FlightAware Approximate
05:59PM 41.2202 -75.4644 357° North  Level FlightAware Approximate
06:00PM 41.2905 -75.4667 North  Level FlightAware Approximate
06:01PM 41.3608 -75.4667 North  Level FlightAware Approximate
06:02PM 41.4311 -75.4667 North  Level FlightAware Approximate
06:03PM 41.4946 -75.4945 323° Northwest  Level FlightAware Approximate
06:04PM 41.5509 -75.5507 323° Northwest  Level FlightAware Approximate
06:05PM 41.6073 -75.6070 323° Northwest  Level FlightAware Approximate
06:06PM 41.6636 -75.6634 323° Northwest  Level FlightAware Approximate
06:07PM 41.7199 -75.7197 325° Northwest  Level FlightAware Approximate
06:08PM 41.7776 -75.7737 325° Northwest  Level FlightAware Approximate
06:09PM 41.8352 -75.8279 325° Northwest  Level FlightAware Approximate
06:10PM 41.8928 -75.8821 325° Northwest  Level FlightAware Approximate
06:11PM 41.9503 -75.9364 325° Northwest  Level FlightAware Approximate
06:12PM 42.0077 -75.9911 323° Northwest  Level FlightAware Approximate
06:13PM 42.0642 -76.0475 323° Northwest  Level FlightAware Approximate
06:14PM 42.1207 -76.1040 323° Northwest  Level FlightAware Approximate
06:15PM 42.1573 -76.0927 37° Northeast  Level FlightAware Approximate
06:16PM 42.1946 -76.0136 62° Northeast  Level FlightAware Approximate
06:17PM 42.2000 -75.9667 90° East  Level FlightAware Approximate
06:18PM 42.2086 -75.9797 90° East  Level Estimated
06:19PM 42.2086 -75.9797 90° East  Level Estimated
06:20PM 42.2086 -75.9797 90° East  Level Estimated
06:21PM 42.2086 -75.9797 90° East  Level Estimated
06:22PM 42.2086 -75.9797 90° East  Level Estimated